createdAt,value
2023-04-27T00:01:15.463Z,14.70
2023-04-27T00:03:42.737Z,13.43
2023-04-27T00:06:09.994Z,13.13
2023-04-27T00:08:37.382Z,15.43
2023-04-27T00:11:04.405Z,13.35
2023-04-27T00:13:31.104Z,12.63
2023-04-27T00:16:00.841Z,16.98
2023-04-27T00:18:27.657Z,11.65
2023-04-27T00:20:54.446Z,12.98
2023-04-27T00:23:21.449Z,13.43
2023-04-27T00:25:48.126Z,11.80
2023-04-27T00:28:14.867Z,13.48
2023-04-27T00:30:41.665Z,13.00
2023-04-27T00:33:08.407Z,16.33
2023-04-27T00:35:35.088Z,14.45
2023-04-27T00:38:01.782Z,13.75
2023-04-27T00:40:28.624Z,13.43
2023-04-27T00:42:55.514Z,11.30
2023-04-27T00:45:22.566Z,15.73
2023-04-27T00:47:49.919Z,12.65
2023-04-27T00:50:17.301Z,14.55
2023-04-27T00:52:44.438Z,12.90
2023-04-27T00:55:11.777Z,14.13
2023-04-27T00:57:39.010Z,13.43
2023-04-27T01:00:07.289Z,13.60
2023-04-27T01:02:35.959Z,12.73
2023-04-27T01:05:03.620Z,11.55
2023-04-27T01:07:30.732Z,17.52
2023-04-27T01:09:57.469Z,14.50
2023-04-27T01:12:24.564Z,12.50
2023-04-27T01:14:51.472Z,16.13
2023-04-27T01:17:18.313Z,11.40
2023-04-27T01:19:45.111Z,12.30
2023-04-27T01:22:12.134Z,13.30
2023-04-27T01:24:38.912Z,11.48
2023-04-27T01:27:05.767Z,13.18
2023-04-27T01:29:32.763Z,10.75
2023-04-27T01:31:59.526Z,9.65
2023-04-27T01:34:26.396Z,12.38
2023-04-27T01:36:53.243Z,11.85
2023-04-27T01:39:19.983Z,12.63
2023-04-27T01:41:46.703Z,13.50
2023-04-27T01:44:13.488Z,13.13
2023-04-27T01:46:41.049Z,11.15
2023-04-27T01:49:07.919Z,10.43
2023-04-27T01:51:34.735Z,13.07
2023-04-27T01:54:01.453Z,12.07
2023-04-27T01:56:28.130Z,11.20
2023-04-27T01:58:54.841Z,10.65
2023-04-27T02:01:21.586Z,12.07
2023-04-27T02:03:48.436Z,11.15
2023-04-27T02:06:15.341Z,12.75
2023-04-27T02:08:42.122Z,13.43
2023-04-27T02:11:09.276Z,13.38
2023-04-27T02:13:36.327Z,14.65
2023-04-27T02:16:05.083Z,12.27
2023-04-27T02:18:33.698Z,12.52
2023-04-27T02:21:00.783Z,12.55
2023-04-27T02:23:27.636Z,13.23
2023-04-27T02:25:54.394Z,12.63
2023-04-27T02:28:21.505Z,12.70
2023-04-27T02:30:48.554Z,10.43
2023-04-27T02:33:15.354Z,15.50
2023-04-27T02:35:42.225Z,12.50
2023-04-27T02:38:09.000Z,11.02
2023-04-27T02:40:35.830Z,14.82
2023-04-27T02:43:02.591Z,11.13
2023-04-27T02:45:29.705Z,11.75
2023-04-27T02:47:56.621Z,12.35
2023-04-27T02:50:23.422Z,11.48
2023-04-27T02:52:50.146Z,11.63
2023-04-27T02:55:17.277Z,10.95
2023-04-27T02:57:44.348Z,12.25
2023-04-27T03:00:12.051Z,10.98
2023-04-27T03:02:38.888Z,13.20
2023-04-27T03:05:06.846Z,11.55
2023-04-27T03:07:33.524Z,12.15
2023-04-27T03:10:00.273Z,12.65
2023-04-27T03:12:27.097Z,12.88
2023-04-27T03:14:53.802Z,14.50
2023-04-27T03:17:20.690Z,12.52
2023-04-27T03:19:49.381Z,11.70
2023-04-27T03:22:16.120Z,15.70
2023-04-27T03:24:43.101Z,11.20
2023-04-27T03:27:10.176Z,11.65
2023-04-27T03:29:37.289Z,11.73
2023-04-27T03:32:04.645Z,11.98
2023-04-27T03:34:33.482Z,11.77
2023-04-27T03:37:00.140Z,10.63
2023-04-27T03:39:27.724Z,13.45
2023-04-27T03:41:54.442Z,13.32
2023-04-27T03:44:21.233Z,15.18
2023-04-27T03:46:48.041Z,13.65
2023-04-27T03:49:14.909Z,12.35
2023-04-27T03:51:42.584Z,15.23
2023-04-27T03:54:10.086Z,13.18
2023-04-27T03:56:37.077Z,11.57
2023-04-27T03:59:04.955Z,12.13
2023-04-27T04:01:31.947Z,12.32
2023-04-27T04:03:58.985Z,12.20
2023-04-27T04:06:26.154Z,13.57
2023-04-27T04:08:52.845Z,13.02
2023-04-27T04:11:19.566Z,15.13
2023-04-27T04:13:47.333Z,14.80
2023-04-27T04:16:14.157Z,13.05
2023-04-27T04:18:41.262Z,10.98
2023-04-27T04:21:10.109Z,15.48
2023-04-27T04:23:37.618Z,14.13
2023-04-27T04:26:04.904Z,13.93
2023-04-27T04:28:31.724Z,13.27
2023-04-27T04:30:59.699Z,12.32
2023-04-27T04:33:27.129Z,13.27
2023-04-27T04:35:54.421Z,15.43
2023-04-27T04:38:21.297Z,14.82
2023-04-27T04:40:48.251Z,11.35
2023-04-27T04:43:14.907Z,11.27
2023-04-27T04:45:42.648Z,15.18
2023-04-27T04:48:10.293Z,10.70
2023-04-27T04:50:37.102Z,9.88
2023-04-27T04:53:03.798Z,11.48
2023-04-27T04:55:30.861Z,12.73
2023-04-27T04:57:57.620Z,13.68
2023-04-27T05:00:24.414Z,13.10
2023-04-27T05:02:51.302Z,15.02
2023-04-27T05:05:18.264Z,14.13
2023-04-27T05:07:44.920Z,9.25
2023-04-27T05:10:11.762Z,11.80
2023-04-27T05:12:38.718Z,14.32
2023-04-27T05:15:06.194Z,11.57
2023-04-27T05:17:32.981Z,12.07
2023-04-27T05:19:59.694Z,14.65
2023-04-27T05:22:26.455Z,12.45
2023-04-27T05:24:53.121Z,11.32
2023-04-27T05:27:19.826Z,15.68
2023-04-27T05:29:46.570Z,16.75
2023-04-27T05:32:13.327Z,10.80
2023-04-27T05:34:41.082Z,11.48
2023-04-27T05:37:07.844Z,15.20
2023-04-27T05:39:34.544Z,10.85
2023-04-27T05:42:02.927Z,10.68
2023-04-27T05:44:29.697Z,14.82
2023-04-27T05:46:56.731Z,9.95
2023-04-27T05:49:23.827Z,9.75
2023-04-27T05:51:51.814Z,9.65
2023-04-27T05:54:18.560Z,9.90
2023-04-27T05:56:45.436Z,8.18
2023-04-27T05:59:12.604Z,10.07
2023-04-27T06:01:39.591Z,9.32
2023-04-27T06:04:07.069Z,9.45
2023-04-27T06:06:35.319Z,7.47
2023-04-27T06:09:02.096Z,8.52
2023-04-27T06:11:28.799Z,11.73
2023-04-27T06:13:55.536Z,7.85
2023-04-27T06:16:23.261Z,9.48
2023-04-27T06:18:51.206Z,10.32
2023-04-27T06:21:18.214Z,8.50
2023-04-27T06:23:45.723Z,10.23
2023-04-27T06:26:12.461Z,11.10
2023-04-27T06:28:39.180Z,10.20
2023-04-27T06:31:06.598Z,8.57
2023-04-27T06:33:33.753Z,13.48
2023-04-27T06:36:02.307Z,11.35
2023-04-27T06:38:29.379Z,8.68
2023-04-27T06:40:56.331Z,10.88
2023-04-27T06:43:23.337Z,10.50
2023-04-27T06:45:50.298Z,10.38
2023-04-27T06:48:17.360Z,9.85
2023-04-27T06:50:44.377Z,11.98
2023-04-27T06:53:11.282Z,9.50
2023-04-27T06:55:38.084Z,9.27
2023-04-27T06:58:04.873Z,14.65
2023-04-27T07:00:32.233Z,8.00
2023-04-27T07:02:59.110Z,13.63
2023-04-27T07:05:26.065Z,10.02
2023-04-27T07:07:52.937Z,9.50
2023-04-27T07:10:19.912Z,14.35
2023-04-27T07:12:46.582Z,11.68
2023-04-27T07:15:13.541Z,9.63
2023-04-27T07:17:40.230Z,10.05
2023-04-27T07:20:08.762Z,9.00
2023-04-27T07:22:35.641Z,8.15
2023-04-27T07:25:02.429Z,7.40
2023-04-27T07:27:29.119Z,7.05
2023-04-27T07:29:56.629Z,6.35
2023-04-27T07:32:23.460Z,10.32
2023-04-27T07:34:54.034Z,7.25
2023-04-27T07:37:22.233Z,6.90
2023-04-27T07:39:50.460Z,12.50
2023-04-27T07:42:17.339Z,7.10
2023-04-27T07:44:44.403Z,6.20
2023-04-27T07:47:11.518Z,7.07
2023-04-27T07:49:38.230Z,9.18
2023-04-27T07:52:05.618Z,8.23
2023-04-27T07:54:32.342Z,6.53
2023-04-27T07:56:59.108Z,9.35
2023-04-27T07:59:29.227Z,7.65
2023-04-27T08:02:07.123Z,8.30
2023-04-27T08:04:43.338Z,8.13
2023-04-27T08:07:10.829Z,7.13
2023-04-27T08:09:37.869Z,13.43
2023-04-27T08:12:04.981Z,6.35
2023-04-27T08:14:35.162Z,6.40
2023-04-27T08:17:02.191Z,7.78
2023-04-27T08:19:29.106Z,10.45
2023-04-27T08:21:56.107Z,9.20
2023-04-27T08:24:22.771Z,7.28
2023-04-27T08:26:49.688Z,9.57
2023-04-27T08:29:27.023Z,7.22
2023-04-27T08:31:57.160Z,7.35
2023-04-27T08:34:24.187Z,7.50
2023-04-27T08:36:51.122Z,7.07
2023-04-27T08:39:18.539Z,7.10
2023-04-27T08:41:45.482Z,8.88
2023-04-27T08:44:12.446Z,7.53
2023-04-27T08:46:39.640Z,8.73
2023-04-27T08:49:07.672Z,7.07
2023-04-27T08:51:35.505Z,7.45
2023-04-27T08:54:02.794Z,10.68
2023-04-27T08:56:30.712Z,6.78
2023-04-27T08:58:58.561Z,10.73
2023-04-27T09:01:29.078Z,8.00
2023-04-27T09:03:57.380Z,6.13
2023-04-27T09:06:35.596Z,7.00
2023-04-27T09:09:03.924Z,5.22
2023-04-27T09:11:35.538Z,8.82
2023-04-27T09:14:04.216Z,5.55
2023-04-27T09:16:31.914Z,8.70
2023-04-27T09:18:59.011Z,8.18
2023-04-27T09:21:31.146Z,6.80
2023-04-27T09:23:58.186Z,8.05
2023-04-27T09:26:26.837Z,7.07
2023-04-27T09:28:58.341Z,4.82
2023-04-27T09:31:35.399Z,6.60
2023-04-27T09:34:03.064Z,8.23
2023-04-27T09:36:32.244Z,5.30
2023-04-27T09:39:02.376Z,6.20
2023-04-27T09:41:29.619Z,9.75
2023-04-27T09:43:58.173Z,5.13
2023-04-27T09:46:26.330Z,8.23
2023-04-27T09:48:54.464Z,10.10
2023-04-27T09:51:21.165Z,8.20
2023-04-27T09:53:52.924Z,5.65
2023-04-27T09:56:59.900Z,12.18
2023-04-27T09:59:49.041Z,8.30
2023-04-27T10:05:17.603Z,7.57
2023-04-27T10:07:45.321Z,9.02
2023-04-27T10:10:18.849Z,6.53
2023-04-27T10:13:01.212Z,7.75
2023-04-27T10:15:29.266Z,8.68
2023-04-27T10:17:58.991Z,9.20
2023-04-27T10:20:37.090Z,7.50
2023-04-27T10:23:04.433Z,9.85
2023-04-27T10:25:40.632Z,6.38
2023-04-27T10:28:10.255Z,8.40
2023-04-27T10:30:39.245Z,6.63
2023-04-27T10:33:08.584Z,8.10
2023-04-27T10:35:39.838Z,9.27
2023-04-27T10:38:10.837Z,7.10
2023-04-27T10:40:38.933Z,6.57
2023-04-27T10:43:14.192Z,9.07
2023-04-27T10:45:42.310Z,11.85
2023-04-27T10:48:12.806Z,10.18
2023-04-27T10:50:40.542Z,11.25
2023-04-27T10:53:08.095Z,10.25
2023-04-27T10:55:36.202Z,12.02
2023-04-27T10:58:04.334Z,8.95
2023-04-27T11:00:37.303Z,9.63
2023-04-27T11:03:13.157Z,9.50
2023-04-27T11:05:40.402Z,8.80
2023-04-27T11:08:08.552Z,7.75
2023-04-27T11:10:38.964Z,10.35
2023-04-27T11:13:22.759Z,11.90
2023-04-27T11:15:58.852Z,14.07
2023-04-27T11:18:29.172Z,8.93
2023-04-27T11:21:10.441Z,10.95
2023-04-27T11:23:38.422Z,9.80
2023-04-27T11:26:21.998Z,8.48
2023-04-27T11:29:09.363Z,10.25
2023-04-27T11:31:54.302Z,11.82
2023-04-27T11:34:23.232Z,9.23
2023-04-27T11:39:41.534Z,10.85
2023-04-27T11:42:25.929Z,11.90
2023-04-27T11:44:56.922Z,9.63
2023-04-27T11:47:25.227Z,10.18
2023-04-27T11:49:53.104Z,12.05
2023-04-27T11:52:19.867Z,12.75
2023-04-27T11:54:53.162Z,10.13
2023-04-27T11:57:31.512Z,10.98
2023-04-27T12:00:02.734Z,11.15
2023-04-27T12:02:31.267Z,17.42
2023-04-27T12:04:59.970Z,13.68
2023-04-27T12:07:27.208Z,11.40
2023-04-27T12:09:54.294Z,17.48
2023-04-27T12:12:24.622Z,15.18
2023-04-27T12:14:52.075Z,14.82
2023-04-27T12:17:19.211Z,13.65
2023-04-27T12:19:46.206Z,15.23
2023-04-27T12:22:12.937Z,13.70
2023-04-27T12:24:39.620Z,16.27
2023-04-27T12:27:07.957Z,14.63
2023-04-27T12:29:34.680Z,16.85
2023-04-27T12:32:01.655Z,12.23
2023-04-27T12:34:28.501Z,17.73
2023-04-27T12:36:55.324Z,15.05
2023-04-27T12:39:26.802Z,14.93
2023-04-27T12:41:54.062Z,19.50
2023-04-27T12:44:21.799Z,13.30
2023-04-27T12:46:48.962Z,13.65
2023-04-27T12:49:15.987Z,9.52
2023-04-27T12:51:42.834Z,16.88
2023-04-27T12:54:11.193Z,12.60
2023-04-27T12:56:38.216Z,10.27
2023-04-27T12:59:06.248Z,14.18
2023-04-27T13:01:33.690Z,13.13
2023-04-27T13:04:02.145Z,13.75
2023-04-27T13:06:31.193Z,16.15
2023-04-27T13:08:58.849Z,15.82
2023-04-27T13:11:26.571Z,15.60
2023-04-27T13:13:54.829Z,16.25
2023-04-27T13:16:24.580Z,16.65
2023-04-27T13:18:52.533Z,13.57
2023-04-27T13:21:19.617Z,12.52
2023-04-27T13:23:47.669Z,13.90
2023-04-27T13:26:16.653Z,14.13
2023-04-27T13:28:43.457Z,17.23
2023-04-27T13:31:10.837Z,13.23
2023-04-27T13:33:43.099Z,14.43
2023-04-27T13:36:11.226Z,11.55
2023-04-27T13:38:38.300Z,11.65
2023-04-27T13:41:06.324Z,13.10
2023-04-27T13:43:33.209Z,12.95
2023-04-27T13:46:01.491Z,9.52
2023-04-27T13:48:28.895Z,12.43
2023-04-27T13:50:56.016Z,23.92
2023-04-27T13:53:26.150Z,14.23
2023-04-27T13:55:54.280Z,10.82
2023-04-27T13:58:21.454Z,9.93
2023-04-27T14:00:49.067Z,15.50
2023-04-27T14:03:16.710Z,14.43
2023-04-27T14:05:44.518Z,13.85
2023-04-27T14:08:11.666Z,14.27
2023-04-27T14:10:39.015Z,16.48
2023-04-27T14:13:05.990Z,12.20
2023-04-27T14:15:36.979Z,14.98
2023-04-27T14:18:05.723Z,16.40
2023-04-27T14:20:33.043Z,11.98
2023-04-27T14:23:00.366Z,12.23
2023-04-27T14:25:29.779Z,12.65
2023-04-27T14:27:56.522Z,13.52
2023-04-27T14:30:23.278Z,14.30
2023-04-27T14:32:50.049Z,18.13
2023-04-27T14:35:16.868Z,15.95
2023-04-27T14:37:43.513Z,12.55
2023-04-27T14:40:11.015Z,12.98
2023-04-27T14:42:37.828Z,17.63
2023-04-27T14:45:04.957Z,12.77
2023-04-27T14:47:31.859Z,15.68
2023-04-27T14:49:58.626Z,14.25
2023-04-27T14:52:25.326Z,18.52
2023-04-27T14:54:52.016Z,15.40
2023-04-27T14:57:18.655Z,16.17
2023-04-27T14:59:45.388Z,20.42
2023-04-27T15:02:12.098Z,18.33
2023-04-27T15:04:39.931Z,14.50
2023-04-27T15:07:06.993Z,13.35
2023-04-27T15:09:34.304Z,14.80
2023-04-27T15:12:02.023Z,13.50
2023-04-27T15:14:28.740Z,17.23
2023-04-27T15:16:56.040Z,14.88
2023-04-27T15:19:22.763Z,14.82
2023-04-27T15:21:49.608Z,17.23
2023-04-27T15:24:16.744Z,16.20
2023-04-27T15:26:43.392Z,14.27
2023-04-27T15:29:10.082Z,12.93
2023-04-27T15:31:37.127Z,13.20
2023-04-27T15:34:03.867Z,18.70
2023-04-27T15:36:31.530Z,15.25
2023-04-27T15:38:59.549Z,18.40
2023-04-27T15:41:26.303Z,20.42
2023-04-27T15:43:52.965Z,15.00
2023-04-27T15:46:19.785Z,19.33
2023-04-27T15:48:46.518Z,17.25
2023-04-27T15:51:13.286Z,17.60
2023-04-27T15:53:40.061Z,17.88
2023-04-27T15:56:07.039Z,19.48
2023-04-27T15:58:33.765Z,18.90
2023-04-27T16:01:00.851Z,15.88
2023-04-27T16:03:27.675Z,14.23
2023-04-27T16:05:54.477Z,18.80
2023-04-27T16:08:22.669Z,19.67
2023-04-27T16:10:50.066Z,18.80
2023-04-27T16:13:16.757Z,19.48
2023-04-27T16:15:43.504Z,21.55
2023-04-27T16:18:10.340Z,23.70
2023-04-27T16:20:37.121Z,18.05
2023-04-27T16:23:03.907Z,18.40
2023-04-27T16:25:30.690Z,17.27
2023-04-27T16:27:59.106Z,18.85
2023-04-27T16:30:26.012Z,18.33
2023-04-27T16:32:53.035Z,19.45
2023-04-27T16:35:19.895Z,17.73
2023-04-27T16:37:46.698Z,16.67
2023-04-27T16:40:13.447Z,15.95
2023-04-27T16:42:40.080Z,21.35
2023-04-27T16:45:09.879Z,17.42
2023-04-27T16:47:37.568Z,18.35
2023-04-27T16:50:04.550Z,16.88
2023-04-27T16:52:31.906Z,18.27
2023-04-27T16:54:58.632Z,16.40
2023-04-27T16:57:25.884Z,17.75
2023-04-27T16:59:52.836Z,18.40
2023-04-27T17:02:25.216Z,15.25
2023-04-27T17:04:53.839Z,17.35
2023-04-27T17:07:21.219Z,16.30
2023-04-27T17:09:48.022Z,16.65
2023-04-27T17:12:16.645Z,17.48
2023-04-27T17:14:43.313Z,16.73
2023-04-27T17:17:10.524Z,17.38
2023-04-27T17:19:37.601Z,17.60
2023-04-27T17:22:04.834Z,15.80
2023-04-27T17:24:31.701Z,19.00
2023-04-27T17:26:58.477Z,17.10
2023-04-27T17:29:25.363Z,25.38
2023-04-27T17:31:52.021Z,16.20
2023-04-27T17:34:18.845Z,16.77
2023-04-27T17:36:46.206Z,18.48
2023-04-27T17:39:13.763Z,20.02
2023-04-27T17:41:41.289Z,14.82
2023-04-27T17:44:08.082Z,18.25
2023-04-27T17:46:34.801Z,18.42
2023-04-27T17:49:01.626Z,17.33
2023-04-27T17:51:28.437Z,20.00
2023-04-27T17:53:55.109Z,19.75
2023-04-27T17:56:22.482Z,17.33
2023-04-27T17:58:49.203Z,19.73
2023-04-27T18:01:16.230Z,14.57
2023-04-27T18:03:43.176Z,21.33
2023-04-27T18:06:10.062Z,20.05
2023-04-27T18:08:36.716Z,18.35
2023-04-27T18:11:03.476Z,18.48
2023-04-27T18:13:31.806Z,18.48
2023-04-27T18:15:59.273Z,19.63
2023-04-27T18:18:27.091Z,15.55
2023-04-27T18:20:53.794Z,18.75
2023-04-27T18:23:20.983Z,19.42
2023-04-27T18:25:47.841Z,18.13
2023-04-27T18:28:14.719Z,19.27
2023-04-27T18:30:41.895Z,18.38
2023-04-27T18:33:08.909Z,17.30
2023-04-27T18:35:35.890Z,17.75
2023-04-27T18:38:03.473Z,17.70
2023-04-27T18:40:30.685Z,15.85
2023-04-27T18:42:57.623Z,17.25
2023-04-27T18:45:24.328Z,17.38
2023-04-27T18:47:51.236Z,15.35
2023-04-27T18:50:19.083Z,14.35
2023-04-27T18:52:46.440Z,17.42
2023-04-27T18:55:16.908Z,16.98
2023-04-27T18:57:43.859Z,18.02
2023-04-27T19:00:12.226Z,19.73
2023-04-27T19:02:39.219Z,15.38
2023-04-27T19:05:12.990Z,15.98
2023-04-27T19:07:41.051Z,18.33
2023-04-27T19:10:08.456Z,18.67
2023-04-27T19:12:35.863Z,18.83
2023-04-27T19:15:02.793Z,18.15
2023-04-27T19:17:29.552Z,16.77
2023-04-27T19:19:56.524Z,18.17
2023-04-27T19:22:23.524Z,20.98
2023-04-27T19:24:50.380Z,19.65
2023-04-27T19:27:17.081Z,18.42
2023-04-27T19:29:52.313Z,19.75
2023-04-27T19:32:19.811Z,18.77
2023-04-27T19:34:47.136Z,18.98
2023-04-27T19:37:14.082Z,23.02
2023-04-27T19:39:40.950Z,20.38
2023-04-27T19:42:07.894Z,19.23
2023-04-27T19:44:34.627Z,19.00
2023-04-27T19:47:01.331Z,23.67
2023-04-27T19:49:32.550Z,17.05
2023-04-27T19:52:00.428Z,21.33
2023-04-27T19:54:27.251Z,25.35
2023-04-27T19:56:54.560Z,21.38
2023-04-27T19:59:22.039Z,20.45
2023-04-27T20:01:48.913Z,24.13
2023-04-27T20:04:17.719Z,20.58
2023-04-27T20:06:45.148Z,24.90
2023-04-27T20:09:11.871Z,24.77
2023-04-27T20:11:39.235Z,26.95
2023-04-27T20:14:06.272Z,21.50
2023-04-27T20:16:32.942Z,26.80
2023-04-27T20:18:59.698Z,22.02
2023-04-27T20:21:28.212Z,22.52
2023-04-27T20:23:55.062Z,25.25
2023-04-27T20:26:22.376Z,22.42
2023-04-27T20:28:49.109Z,23.13
2023-04-27T20:31:15.950Z,25.13
2023-04-27T20:33:42.761Z,28.95
2023-04-27T20:36:17.276Z,21.95
2023-04-27T20:38:45.372Z,21.67
2023-04-27T20:41:12.767Z,26.90
2023-04-27T20:43:40.043Z,21.55
2023-04-27T20:46:13.681Z,23.90
2023-04-27T20:48:40.608Z,25.05
2023-04-27T20:51:07.320Z,23.10
2023-04-27T20:53:34.191Z,27.58
2023-04-27T20:56:01.161Z,21.98
2023-04-27T20:58:28.059Z,21.25
2023-04-27T21:00:54.870Z,26.40
2023-04-27T21:03:21.802Z,22.95
2023-04-27T21:05:49.293Z,25.23
2023-04-27T21:08:17.028Z,24.15
2023-04-27T21:10:44.272Z,24.98
2023-04-27T21:13:11.170Z,26.02
2023-04-27T21:15:38.944Z,24.85
2023-04-27T21:18:07.915Z,34.65
2023-04-27T21:20:36.254Z,22.15
2023-04-27T21:23:03.539Z,28.50
2023-04-27T21:25:30.414Z,22.80
2023-04-27T21:27:57.132Z,22.45
2023-04-27T21:30:24.415Z,23.65
2023-04-27T21:32:51.263Z,22.63
2023-04-27T21:35:18.109Z,22.02
2023-04-27T21:37:44.899Z,22.30
2023-04-27T21:40:12.003Z,24.92
2023-04-27T21:42:38.693Z,26.23
2023-04-27T21:45:06.262Z,24.65
2023-04-27T21:47:33.020Z,23.20
2023-04-27T21:49:59.728Z,29.83
2023-04-27T21:52:26.625Z,27.52
2023-04-27T21:54:53.359Z,28.27
2023-04-27T21:57:20.305Z,25.73
2023-04-27T21:59:47.089Z,27.38
2023-04-27T22:02:13.861Z,26.23
2023-04-27T22:04:40.701Z,26.42
2023-04-27T22:07:11.014Z,25.58
2023-04-27T22:09:38.147Z,24.30
2023-04-27T22:12:05.041Z,23.15
2023-04-27T22:14:32.027Z,30.60
2023-04-27T22:17:00.652Z,27.20
2023-04-27T22:19:27.963Z,30.27
2023-04-27T22:21:55.515Z,29.80
2023-04-27T22:24:22.482Z,23.55
2023-04-27T22:26:49.305Z,24.48
2023-04-27T22:29:16.725Z,22.10
2023-04-27T22:31:44.315Z,27.95
2023-04-27T22:34:12.959Z,25.33
2023-04-27T22:36:39.968Z,24.95
2023-04-27T22:39:07.188Z,23.25
2023-04-27T22:41:34.042Z,20.90
2023-04-27T22:44:00.968Z,26.52
2023-04-27T22:46:27.974Z,24.40
2023-04-27T22:48:54.905Z,25.42
2023-04-27T22:51:21.856Z,23.35
2023-04-27T22:53:49.065Z,22.60
2023-04-27T22:56:15.909Z,23.33
2023-04-27T22:58:42.673Z,21.50
2023-04-27T23:01:09.402Z,22.02
2023-04-27T23:03:36.334Z,18.52
2023-04-27T23:06:03.523Z,20.33
2023-04-27T23:08:30.296Z,18.92
2023-04-27T23:10:57.402Z,20.27
2023-04-27T23:13:27.875Z,17.52
2023-04-27T23:15:54.739Z,18.13
2023-04-27T23:18:21.743Z,18.67
2023-04-27T23:20:54.174Z,18.00
2023-04-27T23:23:21.348Z,18.55
2023-04-27T23:25:48.393Z,17.23
2023-04-27T23:28:15.551Z,13.70
2023-04-27T23:30:42.356Z,18.50
2023-04-27T23:33:09.138Z,13.40
2023-04-27T23:35:35.850Z,16.33
2023-04-27T23:38:02.473Z,17.35
2023-04-27T23:40:29.163Z,16.23
2023-04-27T23:42:55.983Z,14.82
2023-04-27T23:45:22.670Z,16.35
2023-04-27T23:47:49.458Z,13.63
2023-04-27T23:50:16.722Z,15.57
2023-04-27T23:52:43.403Z,13.93
2023-04-27T23:55:10.324Z,13.40
2023-04-27T23:57:37.415Z,13.98
